AFL615 UDYZ-URKK
Flight info
| Callsign | AFL615 |
|---|---|
| Flight time | 1h 14m |
| Altitude | 34000 |
| Route | TIBLO T918 OGEVI DCT IBERI DCT BANUT/K0819F340 DCT PROZR DCT MOBIT B949 SM |
| Aircraft | B738/M-SDE2E3FGHIRWXY/LB1 |
Departure
| Time | 2026-05-07 18:55 |
|---|---|
| Airport | Zvartnots International Airport (UDYZ) |
Arrival
| Time | 2026-05-07 20:09 |
|---|---|
| Airport | Krasnodar Pashkovsky International Airport (URKK) |
| Time | Latitude | Longitude | Altitude | Speed | Heading |
|---|---|---|---|---|---|
| 2026-05-07 18:27 | 40.15092 | 44.39935 | 2840 ft | 0 kts | 360° |
| 2026-05-07 18:43 | 40.15088 | 44.39935 | 2813 ft | 3 kts | 358° |
| 2026-05-07 18:44 | 40.15062 | 44.39943 | 2840 ft | 4 kts | 347° |
| 2026-05-07 18:44 | 40.15042 | 44.39945 | 2838 ft | 4 kts | 2° |
| 2026-05-07 18:44 | 40.15015 | 44.39940 | 2837 ft | 4 kts | 22° |
| 2026-05-07 18:44 | 40.14993 | 44.39922 | 2840 ft | 4 kts | 50° |
| 2026-05-07 18:45 | 40.14981 | 44.39892 | 2838 ft | 4 kts | 80° |
| 2026-05-07 18:45 | 40.14980 | 44.39874 | 2838 ft | 0 kts | 90° |
| 2026-05-07 18:47 | 40.14980 | 44.39875 | 2838 ft | 1 kts | 90° |
| 2026-05-07 18:48 | 40.14980 | 44.39897 | 2838 ft | 5 kts | 90° |
| 2026-05-07 18:48 | 40.14980 | 44.39963 | 2840 ft | 9 kts | 91° |
| 2026-05-07 18:48 | 40.14979 | 44.40012 | 2840 ft | 0 kts | 91° |
| 2026-05-07 18:49 | 40.14979 | 44.40024 | 2840 ft | 4 kts | 91° |
| 2026-05-07 18:49 | 40.14978 | 44.40087 | 2840 ft | 10 kts | 91° |
| 2026-05-07 18:50 | 40.14979 | 44.40199 | 2840 ft | 15 kts | 89° |
| 2026-05-07 18:50 | 40.14979 | 44.40353 | 2840 ft | 19 kts | 90° |
| 2026-05-07 18:50 | 40.14982 | 44.40546 | 2840 ft | 23 kts | 88° |
| 2026-05-07 18:50 | 40.14960 | 44.40745 | 2839 ft | 7 kts | 119° |
| 2026-05-07 18:51 | 40.14965 | 44.40809 | 2839 ft | 8 kts | 64° |
| 2026-05-07 18:51 | 40.14983 | 44.40887 | 2840 ft | 11 kts | 81° |
| 2026-05-07 18:51 | 40.14983 | 44.41003 | 2840 ft | 15 kts | 90° |
| 2026-05-07 18:51 | 40.14983 | 44.41160 | 2840 ft | 19 kts | 88° |
| 2026-05-07 18:52 | 40.14987 | 44.41351 | 2840 ft | 23 kts | 88° |
| 2026-05-07 18:52 | 40.14991 | 44.41564 | 2840 ft | 14 kts | 89° |
| 2026-05-07 18:52 | 40.14913 | 44.41765 | 2839 ft | 14 kts | 146° |
| 2026-05-07 18:53 | 40.14827 | 44.41828 | 2840 ft | 14 kts | 153° |
| 2026-05-07 18:53 | 40.14754 | 44.41839 | 2841 ft | 0 kts | 181° |
| 2026-05-07 18:53 | 40.14752 | 44.41838 | 2841 ft | 1 kts | 191° |
| 2026-05-07 18:53 | 40.14738 | 44.41812 | 2840 ft | 6 kts | 262° |
| 2026-05-07 18:54 | 40.14737 | 44.41732 | 2840 ft | 24 kts | 269° |
| 2026-05-07 18:54 | 40.14736 | 44.41186 | 2837 ft | 94 kts | 270° |
| 2026-05-07 18:54 | 40.14731 | 44.40069 | 2842 ft | 149 kts | 271° |
| 2026-05-07 18:54 | 40.14753 | 44.38564 | 3143 ft | 178 kts | 272° |
| 2026-05-07 18:55 | 40.14774 | 44.36860 | 3803 ft | 188 kts | 270° |
| 2026-05-07 18:55 | 40.14768 | 44.35226 | 4893 ft | 177 kts | 271° |
| 2026-05-07 18:55 | 40.15065 | 44.33611 | 5207 ft | 197 kts | 305° |
| 2026-05-07 18:55 | 40.15900 | 44.32096 | 5472 ft | 214 kts | 305° |
| 2026-05-07 18:56 | 40.16742 | 44.30451 | 5938 ft | 219 kts | 303° |
| 2026-05-07 18:56 | 40.17587 | 44.28772 | 6448 ft | 223 kts | 303° |
| 2026-05-07 18:56 | 40.18449 | 44.27052 | 6905 ft | 227 kts | 303° |
| 2026-05-07 18:56 | 40.19313 | 44.25325 | 7449 ft | 228 kts | 302° |
| 2026-05-07 18:57 | 40.20190 | 44.23570 | 7933 ft | 231 kts | 302° |
| 2026-05-07 18:57 | 40.21070 | 44.21811 | 8456 ft | 232 kts | 303° |
| 2026-05-07 18:57 | 40.22015 | 44.20015 | 8673 ft | 248 kts | 304° |
| 2026-05-07 18:57 | 40.23026 | 44.18142 | 9044 ft | 254 kts | 304° |
| 2026-05-07 18:58 | 40.24061 | 44.16228 | 9441 ft | 262 kts | 304° |
| 2026-05-07 18:58 | 40.25144 | 44.14222 | 9649 ft | 279 kts | 304° |
| 2026-05-07 18:58 | 40.26287 | 44.12101 | 10206 ft | 287 kts | 304° |
| 2026-05-07 18:58 | 40.27473 | 44.09896 | 10467 ft | 308 kts | 304° |
| 2026-05-07 18:59 | 40.28748 | 44.07520 | 10665 ft | 328 kts | 304° |
| 2026-05-07 18:59 | 40.30084 | 44.05031 | 11133 ft | 338 kts | 304° |
| 2026-05-07 18:59 | 40.31444 | 44.02493 | 11790 ft | 342 kts | 304° |
| 2026-05-07 18:59 | 40.32817 | 43.99930 | 12515 ft | 345 kts | 303° |
| 2026-05-07 19:00 | 40.34203 | 43.97340 | 13232 ft | 349 kts | 303° |
| 2026-05-07 19:00 | 40.35602 | 43.94721 | 13946 ft | 353 kts | 303° |
| 2026-05-07 19:00 | 40.37027 | 43.92077 | 14632 ft | 357 kts | 306° |
| 2026-05-07 19:00 | 40.38877 | 43.89888 | 15308 ft | 363 kts | 328° |
| 2026-05-07 19:01 | 40.41237 | 43.88686 | 16024 ft | 369 kts | 348° |
| 2026-05-07 19:01 | 40.43798 | 43.88272 | 16743 ft | 372 kts | 353° |
| 2026-05-07 19:01 | 40.46391 | 43.87971 | 17407 ft | 377 kts | 354° |
| 2026-05-07 19:01 | 40.49021 | 43.87685 | 18067 ft | 381 kts | 354° |
| 2026-05-07 19:02 | 40.51669 | 43.87387 | 18703 ft | 384 kts | 353° |
| 2026-05-07 19:02 | 40.54346 | 43.87069 | 19286 ft | 388 kts | 353° |
| 2026-05-07 19:02 | 40.57032 | 43.86737 | 19868 ft | 391 kts | 353° |
| 2026-05-07 19:02 | 40.59762 | 43.86391 | 20432 ft | 394 kts | 353° |
| 2026-05-07 19:03 | 40.62502 | 43.86039 | 20987 ft | 398 kts | 353° |
| 2026-05-07 19:03 | 40.65267 | 43.85683 | 21539 ft | 401 kts | 353° |
| 2026-05-07 19:03 | 40.68056 | 43.85324 | 22087 ft | 404 kts | 353° |
| 2026-05-07 19:03 | 40.70866 | 43.84962 | 22616 ft | 408 kts | 353° |
| 2026-05-07 19:04 | 40.73699 | 43.84594 | 23151 ft | 411 kts | 353° |
| 2026-05-07 19:04 | 40.76548 | 43.84197 | 23661 ft | 414 kts | 352° |
| 2026-05-07 19:04 | 40.79423 | 43.83784 | 24107 ft | 417 kts | 352° |
| 2026-05-07 19:04 | 40.82317 | 43.83369 | 24524 ft | 420 kts | 352° |
| 2026-05-07 19:05 | 40.85227 | 43.82949 | 24933 ft | 423 kts | 352° |
| 2026-05-07 19:05 | 40.88194 | 43.82508 | 25341 ft | 426 kts | 352° |
| 2026-05-07 19:05 | 40.91169 | 43.82059 | 25737 ft | 429 kts | 352° |
| 2026-05-07 19:05 | 40.94141 | 43.81611 | 26160 ft | 432 kts | 352° |
| 2026-05-07 19:06 | 40.97138 | 43.81160 | 26574 ft | 434 kts | 352° |
| 2026-05-07 19:06 | 41.03172 | 43.80253 | 27350 ft | 439 kts | 352° |
| 2026-05-07 19:06 | 41.06218 | 43.79796 | 27734 ft | 441 kts | 352° |
| 2026-05-07 19:07 | 41.09275 | 43.79323 | 28118 ft | 443 kts | 349° |
| 2026-05-07 19:07 | 41.12214 | 43.78164 | 28421 ft | 441 kts | 331° |
| 2026-05-07 19:07 | 41.14988 | 43.75624 | 28841 ft | 438 kts | 314° |
| 2026-05-07 19:07 | 41.16886 | 43.72497 | 29210 ft | 436 kts | 302° |
| 2026-05-07 19:08 | 41.18575 | 43.69149 | 29554 ft | 438 kts | 302° |
| 2026-05-07 19:08 | 41.20253 | 43.65768 | 29911 ft | 439 kts | 302° |
| 2026-05-07 19:08 | 41.21933 | 43.62387 | 30382 ft | 437 kts | 302° |
| 2026-05-07 19:08 | 41.23610 | 43.59035 | 30781 ft | 435 kts | 302° |
| 2026-05-07 19:09 | 41.25297 | 43.55687 | 31102 ft | 436 kts | 302° |
| 2026-05-07 19:09 | 41.26993 | 43.52337 | 31387 ft | 437 kts | 302° |
| 2026-05-07 19:09 | 41.28695 | 43.48985 | 31704 ft | 438 kts | 302° |
| 2026-05-07 19:09 | 41.30401 | 43.45629 | 32049 ft | 438 kts | 302° |
| 2026-05-07 19:10 | 41.32106 | 43.42274 | 32354 ft | 438 kts | 302° |
| 2026-05-07 19:10 | 41.33812 | 43.38917 | 32667 ft | 438 kts | 302° |
| 2026-05-07 19:10 | 41.35516 | 43.35556 | 32967 ft | 439 kts | 302° |
| 2026-05-07 19:10 | 41.37222 | 43.32188 | 33286 ft | 439 kts | 302° |
| 2026-05-07 19:11 | 41.38907 | 43.28859 | 33574 ft | 439 kts | 302° |
| 2026-05-07 19:11 | 41.40636 | 43.25438 | 33868 ft | 440 kts | 302° |
| 2026-05-07 19:11 | 41.42336 | 43.22069 | 34169 ft | 440 kts | 302° |
| 2026-05-07 19:11 | 41.44050 | 43.18669 | 34212 ft | 443 kts | 302° |
| 2026-05-07 19:12 | 41.47483 | 43.11848 | 34226 ft | 441 kts | 302° |
| 2026-05-07 19:12 | 41.50889 | 43.05068 | 34219 ft | 438 kts | 302° |
| 2026-05-07 19:13 | 41.54270 | 42.98321 | 34220 ft | 437 kts | 302° |
| 2026-05-07 19:13 | 41.57638 | 42.91583 | 34220 ft | 436 kts | 302° |
| 2026-05-07 19:14 | 41.61004 | 42.84835 | 34228 ft | 437 kts | 302° |
| 2026-05-07 19:14 | 41.64373 | 42.78068 | 34219 ft | 438 kts | 302° |
| 2026-05-07 19:15 | 41.67176 | 42.72425 | 34225 ft | 439 kts | 302° |
| 2026-05-07 19:15 | 41.71133 | 42.64440 | 34222 ft | 442 kts | 302° |
| 2026-05-07 19:16 | 41.73956 | 42.58732 | 34219 ft | 443 kts | 302° |
| 2026-05-07 19:16 | 41.77360 | 42.51833 | 34212 ft | 445 kts | 303° |
| 2026-05-07 19:17 | 41.80771 | 42.44907 | 34216 ft | 446 kts | 303° |
| 2026-05-07 19:17 | 41.84181 | 42.37966 | 34201 ft | 446 kts | 303° |
| 2026-05-07 19:18 | 41.87592 | 42.31007 | 34195 ft | 446 kts | 303° |
| 2026-05-07 19:18 | 41.90990 | 42.24058 | 34199 ft | 445 kts | 303° |
| 2026-05-07 19:19 | 41.94380 | 42.17109 | 34192 ft | 444 kts | 303° |
| 2026-05-07 19:19 | 41.97760 | 42.10165 | 34193 ft | 443 kts | 303° |
| 2026-05-07 19:20 | 42.01128 | 42.03229 | 34186 ft | 443 kts | 303° |
| 2026-05-07 19:20 | 42.04486 | 41.96299 | 34197 ft | 442 kts | 303° |
| 2026-05-07 19:21 | 42.07835 | 41.89370 | 34204 ft | 442 kts | 303° |
| 2026-05-07 19:21 | 42.11181 | 41.82432 | 34194 ft | 441 kts | 303° |
| 2026-05-07 19:22 | 42.14520 | 41.75494 | 34185 ft | 441 kts | 303° |
| 2026-05-07 19:22 | 42.17866 | 41.68561 | 34195 ft | 441 kts | 304° |
| 2026-05-07 19:23 | 42.21253 | 41.61652 | 34203 ft | 442 kts | 304° |
| 2026-05-07 19:23 | 42.24645 | 41.54732 | 34210 ft | 442 kts | 304° |
| 2026-05-07 19:24 | 42.28032 | 41.47791 | 34197 ft | 443 kts | 304° |
| 2026-05-07 19:24 | 42.31438 | 41.40788 | 34198 ft | 444 kts | 304° |
| 2026-05-07 19:25 | 42.34818 | 41.33818 | 34205 ft | 444 kts | 304° |
| 2026-05-07 19:25 | 42.38216 | 41.26796 | 34203 ft | 445 kts | 304° |
| 2026-05-07 19:26 | 42.41603 | 41.19780 | 34211 ft | 446 kts | 304° |
| 2026-05-07 19:26 | 42.44989 | 41.12750 | 34192 ft | 446 kts | 304° |
| 2026-05-07 19:27 | 42.48369 | 41.05715 | 34207 ft | 446 kts | 304° |
| 2026-05-07 19:27 | 42.51752 | 40.98658 | 34210 ft | 446 kts | 304° |
| 2026-05-07 19:28 | 42.55106 | 40.91645 | 34210 ft | 446 kts | 305° |
| 2026-05-07 19:28 | 42.58476 | 40.84581 | 34210 ft | 446 kts | 305° |
| 2026-05-07 19:29 | 42.61839 | 40.77516 | 34211 ft | 445 kts | 305° |
| 2026-05-07 19:29 | 42.65197 | 40.70444 | 34212 ft | 445 kts | 305° |
| 2026-05-07 19:30 | 42.68405 | 40.63672 | 34211 ft | 444 kts | 305° |
| 2026-05-07 19:30 | 42.71740 | 40.56616 | 34210 ft | 444 kts | 305° |
| 2026-05-07 19:31 | 42.75074 | 40.49546 | 34210 ft | 444 kts | 305° |
| 2026-05-07 19:31 | 42.78400 | 40.42476 | 34213 ft | 444 kts | 305° |
| 2026-05-07 19:32 | 42.81722 | 40.35398 | 34212 ft | 443 kts | 305° |
| 2026-05-07 19:32 | 42.85039 | 40.28314 | 34210 ft | 444 kts | 306° |
| 2026-05-07 19:33 | 42.88350 | 40.21224 | 34212 ft | 444 kts | 306° |
| 2026-05-07 19:33 | 42.91686 | 40.14064 | 34211 ft | 444 kts | 306° |
| 2026-05-07 19:34 | 42.94972 | 40.06994 | 34212 ft | 445 kts | 306° |
| 2026-05-07 19:34 | 42.98283 | 39.99854 | 34214 ft | 445 kts | 306° |
| 2026-05-07 19:35 | 43.01444 | 39.92566 | 34212 ft | 447 kts | 302° |
| 2026-05-07 19:35 | 43.04432 | 39.85110 | 34208 ft | 447 kts | 302° |
| 2026-05-07 19:36 | 43.07418 | 39.77652 | 34213 ft | 447 kts | 302° |
| 2026-05-07 19:36 | 43.10425 | 39.70200 | 34210 ft | 447 kts | 302° |
| 2026-05-07 19:37 | 43.13438 | 39.62745 | 34209 ft | 447 kts | 302° |
| 2026-05-07 19:37 | 43.16419 | 39.55349 | 34196 ft | 440 kts | 302° |
| 2026-05-07 19:38 | 43.19388 | 39.47964 | 34209 ft | 439 kts | 302° |
| 2026-05-07 19:38 | 43.22298 | 39.40706 | 34186 ft | 428 kts | 302° |
| 2026-05-07 19:39 | 43.23705 | 39.37185 | 34188 ft | 414 kts | 302° |
| 2026-05-07 19:39 | 43.25064 | 39.33783 | 34189 ft | 401 kts | 302° |
| 2026-05-07 19:39 | 43.26381 | 39.30483 | 34186 ft | 388 kts | 302° |
| 2026-05-07 19:39 | 43.27653 | 39.27289 | 34185 ft | 375 kts | 302° |
| 2026-05-07 19:40 | 43.28881 | 39.24204 | 34186 ft | 363 kts | 303° |
| 2026-05-07 19:40 | 43.30112 | 39.21116 | 34219 ft | 368 kts | 302° |
| 2026-05-07 19:40 | 43.32631 | 39.14783 | 34075 ft | 389 kts | 302° |
| 2026-05-07 19:41 | 43.34134 | 39.11727 | 33312 ft | 394 kts | 319° |
| 2026-05-07 19:41 | 43.36341 | 39.09512 | 32197 ft | 398 kts | 340° |
| 2026-05-07 19:41 | 43.38986 | 39.08430 | 31327 ft | 398 kts | 358° |
| 2026-05-07 19:41 | 43.41743 | 39.08151 | 30770 ft | 397 kts | 1° |
| 2026-05-07 19:42 | 43.44494 | 39.07970 | 30368 ft | 394 kts | 1° |
| 2026-05-07 19:42 | 43.47215 | 39.07809 | 29933 ft | 390 kts | 1° |
| 2026-05-07 19:42 | 43.49912 | 39.07641 | 29478 ft | 386 kts | 1° |
| 2026-05-07 19:42 | 43.52579 | 39.07460 | 29160 ft | 380 kts | 1° |
| 2026-05-07 19:43 | 43.55198 | 39.07269 | 28867 ft | 374 kts | 0° |
| 2026-05-07 19:43 | 43.57780 | 39.07075 | 28585 ft | 371 kts | 0° |
| 2026-05-07 19:43 | 43.60376 | 39.06878 | 28321 ft | 376 kts | 0° |
| 2026-05-07 19:43 | 43.63007 | 39.06677 | 28054 ft | 381 kts | 0° |
| 2026-05-07 19:44 | 43.65648 | 39.06471 | 27790 ft | 379 kts | 0° |
| 2026-05-07 19:44 | 43.68266 | 39.06265 | 27523 ft | 375 kts | 0° |
| 2026-05-07 19:44 | 43.70864 | 39.06060 | 27255 ft | 373 kts | 0° |
| 2026-05-07 19:44 | 43.73447 | 39.05857 | 26987 ft | 370 kts | 360° |
| 2026-05-07 19:45 | 43.76016 | 39.05656 | 26732 ft | 368 kts | 360° |
| 2026-05-07 19:45 | 43.78567 | 39.05456 | 26477 ft | 367 kts | 360° |
| 2026-05-07 19:45 | 43.81107 | 39.05257 | 26227 ft | 365 kts | 360° |
| 2026-05-07 19:45 | 43.83643 | 39.05058 | 25975 ft | 364 kts | 360° |
| 2026-05-07 19:46 | 43.86169 | 39.04860 | 25730 ft | 363 kts | 360° |
| 2026-05-07 19:46 | 43.88687 | 39.04662 | 25483 ft | 363 kts | 360° |
| 2026-05-07 19:46 | 43.91204 | 39.04463 | 25239 ft | 362 kts | 359° |
| 2026-05-07 19:46 | 43.93717 | 39.04265 | 25001 ft | 361 kts | 359° |
| 2026-05-07 19:47 | 43.96228 | 39.04067 | 24765 ft | 361 kts | 359° |
| 2026-05-07 19:47 | 43.98735 | 39.03870 | 24525 ft | 361 kts | 359° |
| 2026-05-07 19:47 | 44.01234 | 39.03673 | 24292 ft | 360 kts | 359° |
| 2026-05-07 19:47 | 44.03734 | 39.03475 | 24062 ft | 358 kts | 359° |
| 2026-05-07 19:48 | 44.06205 | 39.03279 | 23823 ft | 355 kts | 359° |
| 2026-05-07 19:48 | 44.08670 | 39.03084 | 23555 ft | 354 kts | 359° |
| 2026-05-07 19:48 | 44.11129 | 39.02890 | 23278 ft | 354 kts | 359° |
| 2026-05-07 19:48 | 44.13586 | 39.02679 | 22999 ft | 353 kts | 356° |
| 2026-05-07 19:49 | 44.16014 | 39.02100 | 22724 ft | 354 kts | 350° |
| 2026-05-07 19:49 | 44.18410 | 39.01327 | 22466 ft | 354 kts | 349° |
| 2026-05-07 19:49 | 44.20806 | 39.00532 | 22204 ft | 353 kts | 349° |
| 2026-05-07 19:49 | 44.23195 | 38.99745 | 21933 ft | 353 kts | 349° |
| 2026-05-07 19:50 | 44.25585 | 38.98969 | 21668 ft | 352 kts | 349° |
| 2026-05-07 19:50 | 44.27958 | 38.98207 | 21416 ft | 348 kts | 349° |
| 2026-05-07 19:50 | 44.30312 | 38.97455 | 21160 ft | 345 kts | 349° |
| 2026-05-07 19:50 | 44.32654 | 38.96708 | 20900 ft | 345 kts | 349° |
| 2026-05-07 19:51 | 44.34991 | 38.95929 | 20651 ft | 346 kts | 348° |
| 2026-05-07 19:51 | 44.37316 | 38.95081 | 20402 ft | 345 kts | 347° |
| 2026-05-07 19:51 | 44.39623 | 38.94216 | 20156 ft | 343 kts | 347° |
| 2026-05-07 19:51 | 44.41925 | 38.93349 | 19897 ft | 342 kts | 347° |
| 2026-05-07 19:52 | 44.44221 | 38.92488 | 19664 ft | 342 kts | 347° |
| 2026-05-07 19:52 | 44.46520 | 38.91630 | 19430 ft | 341 kts | 347° |
| 2026-05-07 19:52 | 44.48805 | 38.90780 | 19179 ft | 340 kts | 347° |
| 2026-05-07 19:52 | 44.51091 | 38.89930 | 18926 ft | 338 kts | 347° |
| 2026-05-07 19:53 | 44.52621 | 38.89362 | 18721 ft | 336 kts | 347° |
| 2026-05-07 19:53 | 44.55597 | 38.88256 | 18234 ft | 333 kts | 347° |
| 2026-05-07 19:53 | 44.57829 | 38.87427 | 17848 ft | 331 kts | 347° |
| 2026-05-07 19:53 | 44.60054 | 38.86599 | 17475 ft | 329 kts | 347° |
| 2026-05-07 19:54 | 44.62263 | 38.85778 | 17098 ft | 327 kts | 347° |
| 2026-05-07 19:54 | 44.64459 | 38.84960 | 16742 ft | 325 kts | 347° |
| 2026-05-07 19:54 | 44.65935 | 38.84410 | 16502 ft | 324 kts | 347° |
| 2026-05-07 19:54 | 44.68105 | 38.83601 | 16154 ft | 322 kts | 347° |
| 2026-05-07 19:55 | 44.70264 | 38.82796 | 15800 ft | 320 kts | 347° |
| 2026-05-07 19:55 | 44.72415 | 38.81992 | 15453 ft | 319 kts | 347° |
| 2026-05-07 19:55 | 44.74554 | 38.81203 | 15105 ft | 317 kts | 350° |
| 2026-05-07 19:55 | 44.76727 | 38.81114 | 14741 ft | 311 kts | 14° |
| 2026-05-07 19:56 | 44.78700 | 38.82215 | 14636 ft | 302 kts | 33° |
| 2026-05-07 19:56 | 44.80320 | 38.84117 | 14196 ft | 311 kts | 46° |
| 2026-05-07 19:56 | 44.81809 | 38.86334 | 13736 ft | 312 kts | 48° |
| 2026-05-07 19:56 | 44.83281 | 38.88584 | 13339 ft | 311 kts | 48° |
| 2026-05-07 19:57 | 44.84756 | 38.90800 | 12949 ft | 309 kts | 47° |
| 2026-05-07 19:57 | 44.86233 | 38.92989 | 12587 ft | 307 kts | 47° |
| 2026-05-07 19:57 | 44.87688 | 38.95169 | 12234 ft | 304 kts | 51° |
| 2026-05-07 19:57 | 44.88745 | 38.97766 | 11883 ft | 300 kts | 68° |
| 2026-05-07 19:58 | 44.89502 | 39.00491 | 11565 ft | 298 kts | 69° |
| 2026-05-07 19:58 | 44.90243 | 39.03210 | 11220 ft | 296 kts | 69° |
| 2026-05-07 19:58 | 44.90980 | 39.05907 | 10884 ft | 294 kts | 69° |
| 2026-05-07 19:58 | 44.91720 | 39.08592 | 10554 ft | 292 kts | 69° |
| 2026-05-07 19:59 | 44.92457 | 39.11255 | 10227 ft | 291 kts | 69° |
| 2026-05-07 19:59 | 44.93187 | 39.13880 | 10141 ft | 280 kts | 69° |
| 2026-05-07 19:59 | 44.93887 | 39.16391 | 9868 ft | 274 kts | 69° |
| 2026-05-07 19:59 | 44.94592 | 39.18926 | 9324 ft | 276 kts | 69° |
| 2026-05-07 20:00 | 44.95289 | 39.21426 | 8944 ft | 271 kts | 69° |
| 2026-05-07 20:00 | 44.95979 | 39.23903 | 8621 ft | 271 kts | 69° |
| 2026-05-07 20:00 | 44.96666 | 39.26374 | 8307 ft | 270 kts | 69° |
| 2026-05-07 20:00 | 44.97351 | 39.28838 | 7997 ft | 269 kts | 69° |
| 2026-05-07 20:01 | 44.98034 | 39.31300 | 7693 ft | 269 kts | 69° |
| 2026-05-07 20:01 | 44.98442 | 39.32715 | 7510 ft | 268 kts | 65° |
| 2026-05-07 20:02 | 44.99220 | 39.34486 | 7261 ft | 268 kts | 53° |
| 2026-05-07 20:02 | 45.00378 | 39.36549 | 6963 ft | 268 kts | 52° |
| 2026-05-07 20:02 | 45.01534 | 39.38610 | 6655 ft | 268 kts | 52° |
| 2026-05-07 20:02 | 45.02677 | 39.40687 | 6339 ft | 267 kts | 53° |
| 2026-05-07 20:03 | 45.03808 | 39.42767 | 6022 ft | 267 kts | 53° |
| 2026-05-07 20:03 | 45.04934 | 39.44853 | 5711 ft | 267 kts | 53° |
| 2026-05-07 20:03 | 45.06070 | 39.46928 | 5397 ft | 267 kts | 49° |
| 2026-05-07 20:03 | 45.07575 | 39.48420 | 5074 ft | 267 kts | 19° |
| 2026-05-07 20:04 | 45.09394 | 39.48674 | 4778 ft | 264 kts | 349° |
| 2026-05-07 20:04 | 45.11078 | 39.47730 | 4493 ft | 261 kts | 325° |
| 2026-05-07 20:04 | 45.12525 | 39.46186 | 4158 ft | 261 kts | 321° |
| 2026-05-07 20:04 | 45.13951 | 39.44589 | 3750 ft | 259 kts | 320° |
| 2026-05-07 20:05 | 45.15084 | 39.42687 | 3395 ft | 252 kts | 290° |
| 2026-05-07 20:05 | 45.15184 | 39.40311 | 3109 ft | 241 kts | 251° |
| 2026-05-07 20:05 | 45.14268 | 39.38426 | 2964 ft | 228 kts | 223° |
| 2026-05-07 20:05 | 45.13192 | 39.36837 | 2735 ft | 221 kts | 231° |
| 2026-05-07 20:06 | 45.12256 | 39.35147 | 2488 ft | 216 kts | 233° |
| 2026-05-07 20:06 | 45.11367 | 39.33490 | 2244 ft | 207 kts | 233° |
| 2026-05-07 20:06 | 45.10517 | 39.31916 | 1996 ft | 195 kts | 234° |
| 2026-05-07 20:06 | 45.09727 | 39.30458 | 1760 ft | 178 kts | 234° |
| 2026-05-07 20:07 | 45.09009 | 39.29133 | 1569 ft | 159 kts | 234° |
| 2026-05-07 20:07 | 45.08368 | 39.27949 | 1370 ft | 148 kts | 234° |
| 2026-05-07 20:07 | 45.07743 | 39.26793 | 1190 ft | 149 kts | 234° |
| 2026-05-07 20:07 | 45.07112 | 39.25627 | 1005 ft | 149 kts | 235° |
| 2026-05-07 20:08 | 45.06482 | 39.24462 | 817 ft | 149 kts | 234° |
| 2026-05-07 20:08 | 45.05855 | 39.23302 | 639 ft | 149 kts | 234° |
| 2026-05-07 20:08 | 45.05227 | 39.22141 | 457 ft | 148 kts | 234° |
| 2026-05-07 20:08 | 45.04603 | 39.20989 | 272 ft | 148 kts | 232° |
| 2026-05-07 20:09 | 45.03989 | 39.19860 | 119 ft | 141 kts | 233° |
| 2026-05-07 20:09 | 45.03463 | 39.18888 | 116 ft | 102 kts | 232° |
| 2026-05-07 20:09 | 45.03169 | 39.18346 | 113 ft | 39 kts | 232° |
| 2026-05-07 20:10 | 45.02910 | 39.17876 | 113 ft | 28 kts | 233° |
| 2026-05-07 20:10 | 45.02797 | 39.17661 | 112 ft | 26 kts | 233° |
| 2026-05-07 20:10 | 45.02689 | 39.17466 | 110 ft | 15 kts | 229° |
| 2026-05-07 20:10 | 45.02648 | 39.17396 | 115 ft | 10 kts | 230° |
| 2026-05-07 20:11 | 45.02640 | 39.17309 | 110 ft | 9 kts | 295° |
| 2026-05-07 20:11 | 45.02694 | 39.17243 | 107 ft | 11 kts | 322° |
| 2026-05-07 20:11 | 45.02733 | 39.17190 | 106 ft | 5 kts | 315° |
| 2026-05-07 20:11 | 45.02762 | 39.17156 | 106 ft | 5 kts | 321° |
| 2026-05-07 20:12 | 45.02767 | 39.17150 | 106 ft | 0 kts | 321° |
| 2026-05-07 20:12 | 45.02769 | 39.17147 | 106 ft | 2 kts | 321° |
| 2026-05-07 20:12 | 45.02806 | 39.17106 | 105 ft | 12 kts | 323° |
| 2026-05-07 20:13 | 45.02895 | 39.17011 | 105 ft | 20 kts | 323° |
| 2026-05-07 20:13 | 45.03014 | 39.16885 | 105 ft | 21 kts | 323° |
| 2026-05-07 20:13 | 45.03126 | 39.16760 | 105 ft | 21 kts | 322° |
| 2026-05-07 20:13 | 45.03249 | 39.16629 | 105 ft | 24 kts | 323° |
| 2026-05-07 20:14 | 45.03389 | 39.16477 | 105 ft | 26 kts | 322° |
| 2026-05-07 20:14 | 45.03526 | 39.16330 | 105 ft | 24 kts | 322° |
| 2026-05-07 20:14 | 45.03653 | 39.16192 | 105 ft | 23 kts | 322° |
| 2026-05-07 20:14 | 45.03738 | 39.16046 | 106 ft | 16 kts | 272° |
| 2026-05-07 20:15 | 45.03738 | 39.15894 | 106 ft | 15 kts | 270° |
| 2026-05-07 20:15 | 45.03738 | 39.15748 | 108 ft | 15 kts | 269° |
| 2026-05-07 20:15 | 45.03739 | 39.15614 | 111 ft | 14 kts | 276° |
| 2026-05-07 20:15 | 45.03769 | 39.15474 | 106 ft | 16 kts | 288° |
| 2026-05-07 20:16 | 45.03813 | 39.15328 | 104 ft | 16 kts | 296° |
| 2026-05-07 20:16 | 45.03830 | 39.15194 | 105 ft | 15 kts | 244° |
| 2026-05-07 20:16 | 45.03796 | 39.15108 | 105 ft | 15 kts | 241° |
| 2026-05-07 20:16 | 45.03746 | 39.14982 | 105 ft | 14 kts | 240° |
| 2026-05-07 20:17 | 45.03697 | 39.14862 | 105 ft | 14 kts | 240° |
| 2026-05-07 20:17 | 45.03651 | 39.14748 | 105 ft | 13 kts | 240° |
| 2026-05-07 20:17 | 45.03608 | 39.14637 | 105 ft | 13 kts | 243° |
| 2026-05-07 20:17 | 45.03566 | 39.14529 | 105 ft | 12 kts | 240° |
| 2026-05-07 20:18 | 45.03524 | 39.14424 | 105 ft | 12 kts | 240° |
| 2026-05-07 20:18 | 45.03483 | 39.14321 | 105 ft | 12 kts | 240° |
| 2026-05-07 20:18 | 45.03443 | 39.14222 | 105 ft | 11 kts | 240° |
| 2026-05-07 20:18 | 45.03404 | 39.14125 | 105 ft | 11 kts | 239° |
| 2026-05-07 20:19 | 45.03364 | 39.14096 | 105 ft | 6 kts | 174° |
| 2026-05-07 20:19 | 45.03359 | 39.14100 | 105 ft | 0 kts | 149° |
| 2026-05-07 20:19 | 45.03346 | 39.14115 | 105 ft | 1 kts | 149° |
| 2026-05-07 20:19 | 45.03344 | 39.14116 | 105 ft | 0 kts | 150° |